<?xml version='1.0' encoding='utf-8'?>
<gpx xmlns="http://www.topografix.com/GPX/1/1" xmlns:gpxx="http://www.garmin.com/xmlschemas/GpxExtensions/v3" xmlns:xsi="http://www.w3.org/2001/XMLSchema-instance" creator="eTrex 30" version="1.1" xsi:schemaLocation="http://www.topografix.com/GPX/1/1 http://www.topografix.com/GPX/1/1/gpx.xsd http://www.garmin.com/xmlschemas/GpxExtensions/v3 http://www8.garmin.com/xmlschemas/GpxExtensionsv3.xsd http://www.garmin.com/xmlschemas/WaypointExtension/v1 http://www8.garmin.com/xmlschemas/WaypointExtensionv1.xsd http://www.garmin.com/xmlschemas/TrackPointExtension/v1 http://www.garmin.com/xmlschemas/TrackPointExtensionv1.xsd"><metadata><link href="http://www.garmin.com"><text>Garmin International</text></link><time>2015-11-24T14:03:54Z</time></metadata><trk><name>24-NOV-15 16:03:50</name><extensions><gpxx:TrackExtension><gpxx:DisplayColor>Cyan</gpxx:DisplayColor></gpxx:TrackExtension></extensions><trkseg><trkpt lat="30.5261477921" lon="35.5651186500"><ele>1337.3</ele><time>2015-11-24T06:19:59Z</time></trkpt><trkpt lat="30.5262771249" lon="35.5652359966"><ele>1335.2</ele><time>2015-11-24T06:23:37Z</time></trkpt><trkpt lat="30.5262063816" lon="35.5651000421"><ele>1336.3</ele><time>2015-11-24T06:24:37Z</time></trkpt><trkpt lat="30.5262288451" lon="35.5659306049"><ele>1332.0</ele><time>2015-11-24T06:52:38Z</time></trkpt><trkpt lat="30.5258726981" lon="35.5661307648"><ele>1333.2</ele><time>2015-11-24T06:53:00Z</time></trkpt><trkpt lat="30.5266294163" lon="35.5653505772"><ele>1331.7</ele><time>2015-11-24T06:58:41Z</time></trkpt><trkpt lat="30.5267958809" lon="35.5648312345"><ele>1328.6</ele><time>2015-11-24T06:58:55Z</time></trkpt><trkpt lat="30.5273055844" lon="35.5639506318"><ele>1309.2</ele><time>2015-11-24T06:59:25Z</time></trkpt><trkpt lat="30.5276772380" lon="35.5641198624"><ele>1300.8</ele><time>2015-11-24T06:59:51Z</time></trkpt><trkpt lat="30.5279527511" lon="35.5639813095"><ele>1292.6</ele><time>2015-11-24T07:00:07Z</time></trkpt><trkpt lat="30.5279600434" lon="35.5639848299"><ele>1292.4</ele><time>2015-11-24T07:00:22Z</time></trkpt><trkpt lat="30.5284848344" lon="35.5642051063"><ele>1285.8</ele><time>2015-11-24T07:00:37Z</time></trkpt><trkpt lat="30.5287593417" lon="35.5647547077"><ele>1286.0</ele><time>2015-11-24T07:00:45Z</time></trkpt><trkpt lat="30.5296644196" lon="35.5654924829"><ele>1274.6</ele><time>2015-11-24T07:02:55Z</time></trkpt><trkpt lat="30.5297611468" lon="35.5656609591"><ele>1273.7</ele><time>2015-11-24T07:02:58Z</time></trkpt><trkpt lat="30.5300338101" lon="35.5674928240"><ele>1278.2</ele><time>2015-11-24T07:03:29Z</time></trkpt><trkpt lat="30.5300411023" lon="35.5679342989"><ele>1279.8</ele><time>2015-11-24T07:03:43Z</time></trkpt><trkpt lat="30.5298784934" lon="35.5685765203"><ele>1277.7</ele><time>2015-11-24T07:04:15Z</time></trkpt><trkpt lat="30.5295357574" lon="35.5691386107"><ele>1270.5</ele><time>2015-11-24T07:04:43Z</time></trkpt><trkpt lat="30.5291209370" lon="35.5694028083"><ele>1267.1</ele><time>2015-11-24T07:04:53Z</time></trkpt><trkpt lat="30.5281669926" lon="35.5700700078"><ele>1268.3</ele><time>2015-11-24T07:06:40Z</time></trkpt><trkpt lat="30.5298674293" lon="35.5712169036"><ele>1244.2</ele><time>2015-11-24T07:07:07Z</time></trkpt><trkpt lat="30.5298404396" lon="35.5714717973"><ele>1240.8</ele><time>2015-11-24T07:07:10Z</time></trkpt><trkpt lat="30.5297913216" lon="35.5715444684"><ele>1240.5</ele><time>2015-11-24T07:07:11Z</time></trkpt><trkpt lat="30.5290765967" lon="35.5723057967"><ele>1237.0</ele><time>2015-11-24T07:13:01Z</time></trkpt><trkpt lat="30.5290736631" lon="35.5723497178"><ele>1236.6</ele><time>2015-11-24T07:13:02Z</time></trkpt><trkpt lat="30.5291908421" lon="35.5725600198"><ele>1231.9</ele><time>2015-11-24T07:13:07Z</time></trkpt><trkpt lat="30.5299804173" lon="35.5730563961"><ele>1217.7</ele><time>2015-11-24T07:13:19Z</time></trkpt><trkpt lat="30.5299290363" lon="35.5732785165"><ele>1214.6</ele><time>2015-11-24T07:13:22Z</time></trkpt><trkpt lat="30.5293192528" lon="35.5741675850"><ele>1205.9</ele><time>2015-11-24T07:13:35Z</time></trkpt><trkpt lat="30.5312356073" lon="35.5748987384"><ele>1180.8</ele><time>2015-11-24T07:13:54Z</time></trkpt><trkpt lat="30.5313994735" lon="35.5760748871"><ele>1167.7</ele><time>2015-11-24T07:14:03Z</time></trkpt><trkpt lat="30.5315006431" lon="35.5773315020"><ele>1158.3</ele><time>2015-11-24T07:14:13Z</time></trkpt><trkpt lat="30.5317132082" lon="35.5778080970"><ele>1153.2</ele><time>2015-11-24T07:14:19Z</time></trkpt><trkpt lat="30.5324461218" lon="35.5783462152"><ele>1144.9</ele><time>2015-11-24T07:14:28Z</time></trkpt><trkpt lat="30.5327698309" lon="35.5781074986"><ele>1146.6</ele><time>2015-11-24T07:14:33Z</time></trkpt><trkpt lat="30.5329681467" lon="35.5776005611"><ele>1148.6</ele><time>2015-11-24T07:14:40Z</time></trkpt><trkpt lat="30.5330717470" lon="35.5774911772"><ele>1146.7</ele><time>2015-11-24T07:14:42Z</time></trkpt><trkpt lat="30.5332973879" lon="35.5774863996"><ele>1142.7</ele><time>2015-11-24T07:14:45Z</time></trkpt><trkpt lat="30.5337070953" lon="35.5775836296"><ele>1142.5</ele><time>2015-11-24T07:14:51Z</time></trkpt><trkpt lat="30.5342588760" lon="35.5783012882"><ele>1153.2</ele><time>2015-11-24T07:15:31Z</time></trkpt><trkpt lat="30.5350228865" lon="35.5791429989"><ele>1149.8</ele><time>2015-11-24T07:16:15Z</time></trkpt><trkpt lat="30.5360193271" lon="35.5793914385"><ele>1152.0</ele><time>2015-11-24T07:16:50Z</time></trkpt><trkpt lat="30.5363577884" lon="35.5799583904"><ele>1154.6</ele><time>2015-11-24T07:17:18Z</time></trkpt><trkpt lat="30.5365619715" lon="35.5805256777"><ele>1161.0</ele><time>2015-11-24T07:17:54Z</time></trkpt><trkpt lat="30.5369169451" lon="35.5808852613"><ele>1169.1</ele><time>2015-11-24T07:18:27Z</time></trkpt><trkpt lat="30.5373533908" lon="35.5810067151"><ele>1179.6</ele><time>2015-11-24T07:19:01Z</time></trkpt><trkpt lat="30.5384540185" lon="35.5812418275"><ele>1182.1</ele><time>2015-11-24T07:20:10Z</time></trkpt><trkpt lat="30.5387378298" lon="35.5813016742"><ele>1188.0</ele><time>2015-11-24T07:20:29Z</time></trkpt><trkpt lat="30.5387400091" lon="35.5806180462"><ele>1200.2</ele><time>2015-11-24T07:21:48Z</time></trkpt><trkpt lat="30.5381723866" lon="35.5801313091"><ele>1210.7</ele><time>2015-11-24T07:23:04Z</time></trkpt><trkpt lat="30.5378625076" lon="35.5795391276"><ele>1217.4</ele><time>2015-11-24T07:23:50Z</time></trkpt><trkpt lat="30.5379278027" lon="35.5789801385"><ele>1228.2</ele><time>2015-11-24T07:24:30Z</time></trkpt><trkpt lat="30.5381456483" lon="35.5788450222"><ele>1231.8</ele><time>2015-11-24T07:24:46Z</time></trkpt><trkpt lat="30.5389407557" lon="35.5783214048"><ele>1235.8</ele><time>2015-11-24T07:25:37Z</time></trkpt><trkpt lat="30.5397056881" lon="35.5771255586"><ele>1245.2</ele><time>2015-11-24T07:26:49Z</time></trkpt><trkpt lat="30.5404705368" lon="35.5767661426"><ele>1250.4</ele><time>2015-11-24T07:27:23Z</time></trkpt><trkpt lat="30.5417725816" lon="35.5757172313"><ele>1251.1</ele><time>2015-11-24T07:27:55Z</time></trkpt><trkpt lat="30.5425899848" lon="35.5753653590"><ele>1252.1</ele><time>2015-11-24T07:28:16Z</time></trkpt><trkpt lat="30.5445697065" lon="35.5746582616"><ele>1270.7</ele><time>2015-11-24T07:29:57Z</time></trkpt><trkpt lat="30.5451211520" lon="35.5742119253"><ele>1274.9</ele><time>2015-11-24T07:32:12Z</time></trkpt><trkpt lat="30.5451141950" lon="35.5741302855"><ele>1276.5</ele><time>2015-11-24T07:32:38Z</time></trkpt><trkpt lat="30.5456432607" lon="35.5730386265"><ele>1268.2</ele><time>2015-11-24T07:32:58Z</time></trkpt><trkpt lat="30.5461811274" lon="35.5725823157"><ele>1263.1</ele><time>2015-11-24T07:33:06Z</time></trkpt><trkpt lat="30.5465746578" lon="35.5725113209"><ele>1260.6</ele><time>2015-11-24T07:33:11Z</time></trkpt><trkpt lat="30.5467417091" lon="35.5723971594"><ele>1264.3</ele><time>2015-11-24T07:33:14Z</time></trkpt><trkpt lat="30.5467484146" lon="35.5716916546"><ele>1270.5</ele><time>2015-11-24T07:33:23Z</time></trkpt><trkpt lat="30.5468401965" lon="35.5711492617"><ele>1266.6</ele><time>2015-11-24T07:33:30Z</time></trkpt><trkpt lat="30.5484354403" lon="35.5693189055"><ele>1249.7</ele><time>2015-11-24T07:34:00Z</time></trkpt><trkpt lat="30.5485664494" lon="35.5690373573"><ele>1248.1</ele><time>2015-11-24T07:34:03Z</time></trkpt><trkpt lat="30.5490041524" lon="35.5678526592"><ele>1231.3</ele><time>2015-11-24T07:34:12Z</time></trkpt><trkpt lat="30.5491067469" lon="35.5676366575"><ele>1230.5</ele><time>2015-11-24T07:34:14Z</time></trkpt><trkpt lat="30.5492914841" lon="35.5666065216"><ele>1226.8</ele><time>2015-11-24T07:34:22Z</time></trkpt><trkpt lat="30.5493661668" lon="35.5664876662"><ele>1223.9</ele><time>2015-11-24T07:34:24Z</time></trkpt><trkpt lat="30.5499872658" lon="35.5665957928"><ele>1211.2</ele><time>2015-11-24T07:34:33Z</time></trkpt><trkpt lat="30.5503964704" lon="35.5662569124"><ele>1206.5</ele><time>2015-11-24T07:34:39Z</time></trkpt><trkpt lat="30.5508602411" lon="35.5661772843"><ele>1198.6</ele><time>2015-11-24T07:34:44Z</time></trkpt><trkpt lat="30.5518426839" lon="35.5666864850"><ele>1182.7</ele><time>2015-11-24T07:34:59Z</time></trkpt><trkpt lat="30.5518928915" lon="35.5666832998"><ele>1182.4</ele><time>2015-11-24T07:35:00Z</time></trkpt><trkpt lat="30.5518985074" lon="35.5658829119"><ele>1181.9</ele><time>2015-11-24T07:35:10Z</time></trkpt><trkpt lat="30.5519212224" lon="35.5657757912"><ele>1181.0</ele><time>2015-11-24T07:35:11Z</time></trkpt><trkpt lat="30.5522495415" lon="35.5653496552"><ele>1171.4</ele><time>2015-11-24T07:35:16Z</time></trkpt><trkpt lat="30.5523555726" lon="35.5653405190"><ele>1169.3</ele><time>2015-11-24T07:35:17Z</time></trkpt><trkpt lat="30.5528475065" lon="35.5655294470"><ele>1168.1</ele><time>2015-11-24T07:35:23Z</time></trkpt><trkpt lat="30.5534362514" lon="35.5654263496"><ele>1163.2</ele><time>2015-11-24T07:35:29Z</time></trkpt><trkpt lat="30.5546716601" lon="35.5655817501"><ele>1148.9</ele><time>2015-11-24T07:36:27Z</time></trkpt><trkpt lat="30.5552274641" lon="35.5645665340"><ele>1143.0</ele><time>2015-11-24T07:36:40Z</time></trkpt><trkpt lat="30.5559633113" lon="35.5631298758"><ele>1152.0</ele><time>2015-11-24T07:37:20Z</time></trkpt><trkpt lat="30.5562927201" lon="35.5628012214"><ele>1145.4</ele><time>2015-11-24T07:37:29Z</time></trkpt><trkpt lat="30.5566354562" lon="35.5627328251"><ele>1140.4</ele><time>2015-11-24T07:37:34Z</time></trkpt><trkpt lat="30.5574482493" lon="35.5629766546"><ele>1135.8</ele><time>2015-11-24T07:37:50Z</time></trkpt><trkpt lat="30.5577729642" lon="35.5630882178"><ele>1136.8</ele><time>2015-11-24T07:37:58Z</time></trkpt><trkpt lat="30.5587384757" lon="35.5629778281"><ele>1144.3</ele><time>2015-11-24T07:38:17Z</time></trkpt><trkpt lat="30.5589538068" lon="35.5627589766"><ele>1145.6</ele><time>2015-11-24T07:38:22Z</time></trkpt><trkpt lat="30.5599401891" lon="35.5616215523"><ele>1145.9</ele><time>2015-11-24T07:38:42Z</time></trkpt><trkpt lat="30.5605669040" lon="35.5614749528"><ele>1139.4</ele><time>2015-11-24T07:38:54Z</time></trkpt><trkpt lat="30.5615518615" lon="35.5611613858"><ele>1157.8</ele><time>2015-11-24T07:40:03Z</time></trkpt><trkpt lat="30.5618909094" lon="35.5608520936"><ele>1165.1</ele><time>2015-11-24T07:40:34Z</time></trkpt><trkpt lat="30.5626061372" lon="35.5600167532"><ele>1173.5</ele><time>2015-11-24T07:41:25Z</time></trkpt><trkpt lat="30.5629098136" lon="35.5596641265"><ele>1173.2</ele><time>2015-11-24T07:41:40Z</time></trkpt><trkpt lat="30.5640144646" lon="35.5588335637"><ele>1163.1</ele><time>2015-11-24T07:42:05Z</time></trkpt><trkpt lat="30.5645926483" lon="35.5587680172"><ele>1158.4</ele><time>2015-11-24T07:42:11Z</time></trkpt><trkpt lat="30.5646856874" lon="35.5587841943"><ele>1158.3</ele><time>2015-11-24T07:42:12Z</time></trkpt><trkpt lat="30.5655671284" lon="35.5589919817"><ele>1157.9</ele><time>2015-11-24T07:42:24Z</time></trkpt><trkpt lat="30.5676837265" lon="35.5585743114"><ele>1156.6</ele><time>2015-11-24T07:43:34Z</time></trkpt><trkpt lat="30.5676589999" lon="35.5585807655"><ele>1156.5</ele><time>2015-11-24T07:43:48Z</time></trkpt><trkpt lat="30.5678165797" lon="35.5579332635"><ele>1165.6</ele><time>2015-11-24T07:53:51Z</time></trkpt><trkpt lat="30.5678689666" lon="35.5577233806"><ele>1162.3</ele><time>2015-11-24T07:53:53Z</time></trkpt><trkpt lat="30.5680945236" lon="35.5573456921"><ele>1155.9</ele><time>2015-11-24T07:53:57Z</time></trkpt><trkpt lat="30.5686617270" lon="35.5567867868"><ele>1155.3</ele><time>2015-11-24T07:54:05Z</time></trkpt><trkpt lat="30.5690048821" lon="35.5567670055"><ele>1152.1</ele><time>2015-11-24T07:54:09Z</time></trkpt><trkpt lat="30.5692909565" lon="35.5568225775"><ele>1156.4</ele><time>2015-11-24T07:54:14Z</time></trkpt><trkpt lat="30.5698310025" lon="35.5565756466"><ele>1164.7</ele><time>2015-11-24T07:54:54Z</time></trkpt><trkpt lat="30.5701617524" lon="35.5561892409"><ele>1167.9</ele><time>2015-11-24T07:55:20Z</time></trkpt><trkpt lat="30.5709953327" lon="35.5547822546"><ele>1165.9</ele><time>2015-11-24T07:55:53Z</time></trkpt><trkpt lat="30.5714254919" lon="35.5545640737"><ele>1167.6</ele><time>2015-11-24T07:56:13Z</time></trkpt><trkpt lat="30.5722186714" lon="35.5542663485"><ele>1173.8</ele><time>2015-11-24T07:57:02Z</time></trkpt><trkpt lat="30.5735266674" lon="35.5542560387"><ele>1179.6</ele><time>2015-11-24T07:58:07Z</time></trkpt><trkpt lat="30.5739193596" lon="35.5540313199"><ele>1184.6</ele><time>2015-11-24T07:58:29Z</time></trkpt><trkpt lat="30.5739771947" lon="35.5533826444"><ele>1196.2</ele><time>2015-11-24T07:59:07Z</time></trkpt><trkpt lat="30.5740071181" lon="35.5533611868"><ele>1196.5</ele><time>2015-11-24T07:59:11Z</time></trkpt><trkpt lat="30.5747451447" lon="35.5534832273"><ele>1193.1</ele><time>2015-11-24T07:59:32Z</time></trkpt><trkpt lat="30.5749979429" lon="35.5532946344"><ele>1194.8</ele><time>2015-11-24T07:59:37Z</time></trkpt><trkpt lat="30.5750794988" lon="35.5531280022"><ele>1196.6</ele><time>2015-11-24T07:59:40Z</time></trkpt><trkpt lat="30.5751428660" lon="35.5523165502"><ele>1205.3</ele><time>2015-11-24T08:00:15Z</time></trkpt><trkpt lat="30.5748960190" lon="35.5518682860"><ele>1212.9</ele><time>2015-11-24T08:00:44Z</time></trkpt><trkpt lat="30.5742698908" lon="35.5522489082"><ele>1216.8</ele><time>2015-11-24T08:05:01Z</time></trkpt><trkpt lat="30.5740258098" lon="35.5517287273"><ele>1230.0</ele><time>2015-11-24T08:06:17Z</time></trkpt><trkpt lat="30.5736229755" lon="35.5515110493"><ele>1237.5</ele><time>2015-11-24T08:07:15Z</time></trkpt><trkpt lat="30.5732722767" lon="35.5513722450"><ele>1239.8</ele><time>2015-11-24T08:07:43Z</time></trkpt><trkpt lat="30.5720916856" lon="35.5511986557"><ele>1247.2</ele><time>2015-11-24T08:09:10Z</time></trkpt><trkpt lat="30.5713037029" lon="35.5513063632"><ele>1253.5</ele><time>2015-11-24T08:09:59Z</time></trkpt><trkpt lat="30.5708420277" lon="35.5508078076"><ele>1253.4</ele><time>2015-11-24T08:10:34Z</time></trkpt><trkpt lat="30.5707107671" lon="35.5507261679"><ele>1253.9</ele><time>2015-11-24T08:10:42Z</time></trkpt><trkpt lat="30.5698687211" lon="35.5501727946"><ele>1264.8</ele><time>2015-11-24T08:11:38Z</time></trkpt><trkpt lat="30.5685511697" lon="35.5508038681"><ele>1275.3</ele><time>2015-11-24T08:13:10Z</time></trkpt><trkpt lat="30.5691844225" lon="35.5498617422"><ele>1289.9</ele><time>2015-11-24T08:14:17Z</time></trkpt><trkpt lat="30.5703329109" lon="35.5474544596"><ele>1318.5</ele><time>2015-11-24T08:16:56Z</time></trkpt><trkpt lat="30.5705964379" lon="35.5466160178"><ele>1326.9</ele><time>2015-11-24T08:17:47Z</time></trkpt><trkpt lat="30.5704660155" lon="35.5457415339"><ele>1335.1</ele><time>2015-11-24T08:18:41Z</time></trkpt><trkpt lat="30.5706233438" lon="35.5449704826"><ele>1340.3</ele><time>2015-11-24T08:19:18Z</time></trkpt><trkpt lat="30.5700672045" lon="35.5443006009"><ele>1355.0</ele><time>2015-11-24T08:21:33Z</time></trkpt><trkpt lat="30.5700510275" lon="35.5442866869"><ele>1355.4</ele><time>2015-11-24T08:32:27Z</time></trkpt><trkpt lat="30.5703358445" lon="35.5442574341"><ele>1346.6</ele><time>2015-11-24T08:44:02Z</time></trkpt><trkpt lat="30.5701575615" lon="35.5434766598"><ele>1346.7</ele><time>2015-11-24T08:44:35Z</time></trkpt><trkpt lat="30.5703324080" lon="35.5409520306"><ele>1350.9</ele><time>2015-11-24T08:45:33Z</time></trkpt><trkpt lat="30.5702621676" lon="35.5407258868"><ele>1351.4</ele><time>2015-11-24T08:45:37Z</time></trkpt><trkpt lat="30.5701675359" lon="35.5400345474"><ele>1347.3</ele><time>2015-11-24T08:45:46Z</time></trkpt><trkpt lat="30.5703890696" lon="35.5395955034"><ele>1345.8</ele><time>2015-11-24T08:45:54Z</time></trkpt><trkpt lat="30.5704957712" lon="35.5391547829"><ele>1349.3</ele><time>2015-11-24T08:46:04Z</time></trkpt><trkpt lat="30.5703568831" lon="35.5385105498"><ele>1351.9</ele><time>2015-11-24T08:46:21Z</time></trkpt><trkpt lat="30.5698789470" lon="35.5376669113"><ele>1356.8</ele><time>2015-11-24T08:46:47Z</time></trkpt><trkpt lat="30.5698180944" lon="35.5374240875"><ele>1354.5</ele><time>2015-11-24T08:46:52Z</time></trkpt><trkpt lat="30.5698076170" lon="35.5367425550"><ele>1351.3</ele><time>2015-11-24T08:47:04Z</time></trkpt><trkpt lat="30.5698658712" lon="35.5359282531"><ele>1353.4</ele><time>2015-11-24T08:47:21Z</time></trkpt><trkpt lat="30.5701064318" lon="35.5353765562"><ele>1355.6</ele><time>2015-11-24T08:47:43Z</time></trkpt><trkpt lat="30.5700915121" lon="35.5343136471"><ele>1356.7</ele><time>2015-11-24T08:48:14Z</time></trkpt><trkpt lat="30.5695133284" lon="35.5325632542"><ele>1359.0</ele><time>2015-11-24T08:54:35Z</time></trkpt><trkpt lat="30.5683199130" lon="35.5322201829"><ele>1361.6</ele><time>2015-11-24T08:55:34Z</time></trkpt><trkpt lat="30.5670883600" lon="35.5316241458"><ele>1361.1</ele><time>2015-11-24T08:56:17Z</time></trkpt><trkpt lat="30.5662796739" lon="35.5309899710"><ele>1363.9</ele><time>2015-11-24T08:56:46Z</time></trkpt><trkpt lat="30.5654258933" lon="35.5306717101"><ele>1366.4</ele><time>2015-11-24T08:58:47Z</time></trkpt><trkpt lat="30.5646895431" lon="35.5295057874"><ele>1371.8</ele><time>2015-11-24T08:59:59Z</time></trkpt><trkpt lat="30.5632494483" lon="35.5294942204"><ele>1369.8</ele><time>2015-11-24T09:00:42Z</time></trkpt><trkpt lat="30.5626670737" lon="35.5279812869"><ele>1357.4</ele><time>2015-11-24T09:01:06Z</time></trkpt><trkpt lat="30.5620922428" lon="35.5277481861"><ele>1353.5</ele><time>2015-11-24T09:01:20Z</time></trkpt><trkpt lat="30.5617933441" lon="35.5275704898"><ele>1353.9</ele><time>2015-11-24T09:01:25Z</time></trkpt><trkpt lat="30.5612668768" lon="35.5270253308"><ele>1352.3</ele><time>2015-11-24T09:01:48Z</time></trkpt><trkpt lat="30.5595804378" lon="35.5265915673"><ele>1356.6</ele><time>2015-11-24T09:03:01Z</time></trkpt><trkpt lat="30.5571235344" lon="35.5259107053"><ele>1350.5</ele><time>2015-11-24T09:04:31Z</time></trkpt><trkpt lat="30.5559764709" lon="35.5243712012"><ele>1348.4</ele><time>2015-11-24T09:05:12Z</time></trkpt><trkpt lat="30.5555458926" lon="35.5239732284"><ele>1344.9</ele><time>2015-11-24T09:05:29Z</time></trkpt><trkpt lat="30.5549677927" lon="35.5239457358"><ele>1339.6</ele><time>2015-11-24T09:05:52Z</time></trkpt><trkpt lat="30.5549377855" lon="35.5239724740"><ele>1339.3</ele><time>2015-11-24T09:05:54Z</time></trkpt><trkpt lat="30.5547617655" lon="35.5243145395"><ele>1343.2</ele><time>2015-11-24T09:06:08Z</time></trkpt><trkpt lat="30.5546199437" lon="35.5242867116"><ele>1344.6</ele><time>2015-11-24T09:06:12Z</time></trkpt><trkpt lat="30.5541895330" lon="35.5237798579"><ele>1341.6</ele><time>2015-11-24T09:06:23Z</time></trkpt><trkpt lat="30.5542038660" lon="35.5229214672"><ele>1326.0</ele><time>2015-11-24T09:06:37Z</time></trkpt><trkpt lat="30.5540869385" lon="35.5226728600"><ele>1322.9</ele><time>2015-11-24T09:06:41Z</time></trkpt><trkpt lat="30.5536589585" lon="35.5216159020"><ele>1319.4</ele><time>2015-11-24T09:06:55Z</time></trkpt><trkpt lat="30.5528969597" lon="35.5193717312"><ele>1339.6</ele><time>2015-11-24T09:09:10Z</time></trkpt><trkpt lat="30.5527869053" lon="35.5184936430"><ele>1343.3</ele><time>2015-11-24T09:09:44Z</time></trkpt><trkpt lat="30.5523882620" lon="35.5173741560"><ele>1350.0</ele><time>2015-11-24T09:10:39Z</time></trkpt><trkpt lat="30.5523276608" lon="35.5161306169"><ele>1359.9</ele><time>2015-11-24T09:11:41Z</time></trkpt><trkpt lat="30.5520868488" lon="35.5155799259"><ele>1365.8</ele><time>2015-11-24T09:12:10Z</time></trkpt><trkpt lat="30.5517689232" lon="35.5147398077"><ele>1369.6</ele><time>2015-11-24T09:12:52Z</time></trkpt><trkpt lat="30.5514357425" lon="35.5145356245"><ele>1368.6</ele><time>2015-11-24T09:14:24Z</time></trkpt><trkpt lat="30.5509664398" lon="35.5140595324"><ele>1364.7</ele><time>2015-11-24T09:14:34Z</time></trkpt><trkpt lat="30.5505810399" lon="35.5122744385"><ele>1338.8</ele><time>2015-11-24T09:14:50Z</time></trkpt><trkpt lat="30.5500809755" lon="35.5112715438"><ele>1335.8</ele><time>2015-11-24T09:15:14Z</time></trkpt><trkpt lat="30.5498679914" lon="35.5109762494"><ele>1338.3</ele><time>2015-11-24T09:15:21Z</time></trkpt><trkpt lat="30.5496053863" lon="35.5109134689"><ele>1341.2</ele><time>2015-11-24T09:16:12Z</time></trkpt><trkpt lat="30.5495617166" lon="35.5112013873"><ele>1351.4</ele><time>2015-11-24T09:19:34Z</time></trkpt><trkpt lat="30.5496302806" lon="35.5108458269"><ele>1338.2</ele><time>2015-11-24T09:20:44Z</time></trkpt><trkpt lat="30.5483220331" lon="35.5105473474"><ele>1334.1</ele><time>2015-11-24T09:22:31Z</time></trkpt><trkpt lat="30.5477208830" lon="35.5102350377"><ele>1329.3</ele><time>2015-11-24T09:22:40Z</time></trkpt><trkpt lat="30.5473656580" lon="35.5098451115"><ele>1319.5</ele><time>2015-11-24T09:22:46Z</time></trkpt><trkpt lat="30.5462201033" lon="35.5087140575"><ele>1322.9</ele><time>2015-11-24T09:23:23Z</time></trkpt><trkpt lat="30.5455902871" lon="35.5085842218"><ele>1321.4</ele><time>2015-11-24T09:23:42Z</time></trkpt><trkpt lat="30.5443286430" lon="35.5074540060"><ele>1312.3</ele><time>2015-11-24T09:24:33Z</time></trkpt><trkpt lat="30.5429302901" lon="35.5075104162"><ele>1302.8</ele><time>2015-11-24T09:25:23Z</time></trkpt><trkpt lat="30.5425419565" lon="35.5074765533"><ele>1307.7</ele><time>2015-11-24T09:25:31Z</time></trkpt><trkpt lat="30.5421076063" lon="35.5071354937"><ele>1302.5</ele><time>2015-11-24T09:26:59Z</time></trkpt><trkpt lat="30.5415256508" lon="35.5075852666"><ele>1299.7</ele><time>2015-11-24T09:27:53Z</time></trkpt><trkpt lat="30.5411707610" lon="35.5076972488"><ele>1300.2</ele><time>2015-11-24T09:27:58Z</time></trkpt><trkpt lat="30.5403028149" lon="35.5078983307"><ele>1303.5</ele><time>2015-11-24T09:28:13Z</time></trkpt><trkpt lat="30.5396890081" lon="35.5078495480"><ele>1305.3</ele><time>2015-11-24T09:28:25Z</time></trkpt><trkpt lat="30.5384080857" lon="35.5072243419"><ele>1311.8</ele><time>2015-11-24T09:29:21Z</time></trkpt><trkpt lat="30.5376394652" lon="35.5073706899"><ele>1314.4</ele><time>2015-11-24T09:30:12Z</time></trkpt><trkpt lat="30.5372393969" lon="35.5071680993"><ele>1308.1</ele><time>2015-11-24T09:30:49Z</time></trkpt><trkpt lat="30.5360640027" lon="35.5071986932"><ele>1307.1</ele><time>2015-11-24T09:31:23Z</time></trkpt><trkpt lat="30.5356264673" lon="35.5073607154"><ele>1303.4</ele><time>2015-11-24T09:31:34Z</time></trkpt><trkpt lat="30.5354168359" lon="35.5074271839"><ele>1306.2</ele><time>2015-11-24T09:31:38Z</time></trkpt><trkpt lat="30.5339035671" lon="35.5074258428"><ele>1307.2</ele><time>2015-11-24T09:32:20Z</time></trkpt><trkpt lat="30.5329011753" lon="35.5069676042"><ele>1305.1</ele><time>2015-11-24T09:32:43Z</time></trkpt><trkpt lat="30.5325354729" lon="35.5065068509"><ele>1304.8</ele><time>2015-11-24T09:32:55Z</time></trkpt><trkpt lat="30.5316806864" lon="35.5053898785"><ele>1297.0</ele><time>2015-11-24T09:33:33Z</time></trkpt><trkpt lat="30.5307100620" lon="35.5048701167"><ele>1284.8</ele><time>2015-11-24T09:34:19Z</time></trkpt><trkpt lat="30.5300622247" lon="35.5048031453"><ele>1275.2</ele><time>2015-11-24T09:34:59Z</time></trkpt><trkpt lat="30.5281519052" lon="35.5051014572"><ele>1260.9</ele><time>2015-11-24T09:35:45Z</time></trkpt><trkpt lat="30.5278690998" lon="35.5052168760"><ele>1261.5</ele><time>2015-11-24T09:35:52Z</time></trkpt><trkpt lat="30.5274313968" lon="35.5048831087"><ele>1260.4</ele><time>2015-11-24T09:36:09Z</time></trkpt><trkpt lat="30.5268339347" lon="35.5048943404"><ele>1260.3</ele><time>2015-11-24T09:36:27Z</time></trkpt><trkpt lat="30.5253526010" lon="35.5044416338"><ele>1266.6</ele><time>2015-11-24T09:37:27Z</time></trkpt><trkpt lat="30.5241032783" lon="35.5038531404"><ele>1268.4</ele><time>2015-11-24T09:38:17Z</time></trkpt><trkpt lat="30.5237531662" lon="35.5037134141"><ele>1265.9</ele><time>2015-11-24T09:38:38Z</time></trkpt><trkpt lat="30.5229207594" lon="35.5036461074"><ele>1262.0</ele><time>2015-11-24T09:40:56Z</time></trkpt><trkpt lat="30.5224720761" lon="35.5037443433"><ele>1255.8</ele><time>2015-11-24T09:41:13Z</time></trkpt><trkpt lat="30.5222365446" lon="35.5040321779"><ele>1252.8</ele><time>2015-11-24T09:41:23Z</time></trkpt><trkpt lat="30.5219651386" lon="35.5044279713"><ele>1258.1</ele><time>2015-11-24T09:41:39Z</time></trkpt><trkpt lat="30.5215628073" lon="35.5042390432"><ele>1261.9</ele><time>2015-11-24T09:42:10Z</time></trkpt><trkpt lat="30.5196594447" lon="35.5040274002"><ele>1270.2</ele><time>2015-11-24T09:43:39Z</time></trkpt><trkpt lat="30.5191301275" lon="35.5039516278"><ele>1269.4</ele><time>2015-11-24T09:43:58Z</time></trkpt><trkpt lat="30.5182372872" lon="35.5036935490"><ele>1271.0</ele><time>2015-11-24T09:44:20Z</time></trkpt><trkpt lat="30.5172649864" lon="35.5023980420"><ele>1271.9</ele><time>2015-11-24T09:45:17Z</time></trkpt><trkpt lat="30.5167589709" lon="35.5019792821"><ele>1272.4</ele><time>2015-11-24T09:45:43Z</time></trkpt><trkpt lat="30.5152566824" lon="35.5013051257"><ele>1270.9</ele><time>2015-11-24T09:46:26Z</time></trkpt><trkpt lat="30.5151060596" lon="35.5012668204"><ele>1270.6</ele><time>2015-11-24T09:46:36Z</time></trkpt><trkpt lat="30.5140112154" lon="35.5012031179"><ele>1266.8</ele><time>2015-11-24T09:47:21Z</time></trkpt><trkpt lat="30.5129234120" lon="35.5014679022"><ele>1263.6</ele><time>2015-11-24T09:47:58Z</time></trkpt><trkpt lat="30.5115511268" lon="35.5010057241"><ele>1257.3</ele><time>2015-11-24T09:48:37Z</time></trkpt><trkpt lat="30.5108678341" lon="35.5009005312"><ele>1257.4</ele><time>2015-11-24T09:49:07Z</time></trkpt><trkpt lat="30.5100557953" lon="35.5008958373"><ele>1250.8</ele><time>2015-11-24T09:49:44Z</time></trkpt><trkpt lat="30.5093636177" lon="35.5013295170"><ele>1242.9</ele><time>2015-11-24T09:50:24Z</time></trkpt><trkpt lat="30.5082343239" lon="35.5026143789"><ele>1232.3</ele><time>2015-11-24T09:51:41Z</time></trkpt><trkpt lat="30.5081333220" lon="35.5027702823"><ele>1236.4</ele><time>2015-11-24T09:51:47Z</time></trkpt><trkpt lat="30.5073864106" lon="35.5028814264"><ele>1236.7</ele><time>2015-11-24T09:52:28Z</time></trkpt><trkpt lat="30.5069407448" lon="35.5032613780"><ele>1239.6</ele><time>2015-11-24T09:52:55Z</time></trkpt><trkpt lat="30.5067878589" lon="35.5032186303"><ele>1240.3</ele><time>2015-11-24T09:53:04Z</time></trkpt><trkpt lat="30.5063078273" lon="35.5029541813"><ele>1236.7</ele><time>2015-11-24T09:53:28Z</time></trkpt><trkpt lat="30.5055302382" lon="35.5029349029"><ele>1236.2</ele><time>2015-11-24T09:53:52Z</time></trkpt><trkpt lat="30.5043068156" lon="35.5024348386"><ele>1241.6</ele><time>2015-11-24T09:54:56Z</time></trkpt><trkpt lat="30.5024385732" lon="35.5026882235"><ele>1238.8</ele><time>2015-11-24T09:56:09Z</time></trkpt><trkpt lat="30.5019240081" lon="35.5028945860"><ele>1243.1</ele><time>2015-11-24T09:56:29Z</time></trkpt><trkpt lat="30.5016465671" lon="35.5027544405"><ele>1242.1</ele><time>2015-11-24T09:56:42Z</time></trkpt><trkpt lat="30.5011040904" lon="35.5028017983"><ele>1244.7</ele><time>2015-11-24T09:57:04Z</time></trkpt><trkpt lat="30.4999689292" lon="35.5025029834"><ele>1245.0</ele><time>2015-11-24T09:57:50Z</time></trkpt><trkpt lat="30.4989717342" lon="35.5016205367"><ele>1245.2</ele><time>2015-11-24T09:58:41Z</time></trkpt><trkpt lat="30.4987291619" lon="35.5015120748"><ele>1244.9</ele><time>2015-11-24T09:58:53Z</time></trkpt><trkpt lat="30.4963677283" lon="35.5006348249"><ele>1255.7</ele><time>2015-11-24T10:00:45Z</time></trkpt><trkpt lat="30.4956499022" lon="35.5000823736"><ele>1256.9</ele><time>2015-11-24T10:01:25Z</time></trkpt><trkpt lat="30.4954232555" lon="35.4999217764"><ele>1254.4</ele><time>2015-11-24T10:01:40Z</time></trkpt><trkpt lat="30.4947941937" lon="35.5001815315"><ele>1246.7</ele><time>2015-11-24T10:02:26Z</time></trkpt><trkpt lat="30.4937124252" lon="35.5017899349"><ele>1218.9</ele><time>2015-11-24T10:06:10Z</time></trkpt><trkpt lat="30.4931293800" lon="35.5028463900"><ele>1214.4</ele><time>2015-11-24T10:06:42Z</time></trkpt><trkpt lat="30.4909417871" lon="35.5039045215"><ele>1191.9</ele><time>2015-11-24T10:08:43Z</time></trkpt><trkpt lat="30.4906554613" lon="35.5041290727"><ele>1191.5</ele><time>2015-11-24T10:08:57Z</time></trkpt><trkpt lat="30.4904613364" lon="35.5043425597"><ele>1193.8</ele><time>2015-11-24T10:09:10Z</time></trkpt><trkpt lat="30.4903519526" lon="35.5050963443"><ele>1204.1</ele><time>2015-11-24T10:15:32Z</time></trkpt><trkpt lat="30.4902493581" lon="35.5051065702"><ele>1206.5</ele><time>2015-11-24T10:25:54Z</time></trkpt><trkpt lat="30.4903368652" lon="35.5051532574"><ele>1205.1</ele><time>2015-11-24T10:39:00Z</time></trkpt><trkpt lat="30.4903245438" lon="35.5050668400"><ele>1204.4</ele><time>2015-11-24T10:55:57Z</time></trkpt><trkpt lat="30.4906138033" lon="35.5041543860"><ele>1191.8</ele><time>2015-11-24T11:00:11Z</time></trkpt><trkpt lat="30.4905336723" lon="35.5041105486"><ele>1191.5</ele><time>2015-11-24T11:00:25Z</time></trkpt><trkpt lat="30.4884791840" lon="35.5025210045"><ele>1223.1</ele><time>2015-11-24T11:03:35Z</time></trkpt><trkpt lat="30.4873392452" lon="35.5012624618"><ele>1240.3</ele><time>2015-11-24T11:05:39Z</time></trkpt><trkpt lat="30.4860741645" lon="35.5006806739"><ele>1255.2</ele><time>2015-11-24T11:07:20Z</time></trkpt><trkpt lat="30.4849467147" lon="35.4998318385"><ele>1270.5</ele><time>2015-11-24T11:08:55Z</time></trkpt><trkpt lat="30.4842392821" lon="35.4994907789"><ele>1279.6</ele><time>2015-11-24T11:09:49Z</time></trkpt><trkpt lat="30.4840368591" lon="35.4994000867"><ele>1280.3</ele><time>2015-11-24T11:10:05Z</time></trkpt><trkpt lat="30.4832446855" lon="35.4994207062"><ele>1281.6</ele><time>2015-11-24T11:10:44Z</time></trkpt><trkpt lat="30.4823879711" lon="35.4990970809"><ele>1286.6</ele><time>2015-11-24T11:11:42Z</time></trkpt><trkpt lat="30.4822339956" lon="35.4990752041"><ele>1286.4</ele><time>2015-11-24T11:11:51Z</time></trkpt><trkpt lat="30.4824209958" lon="35.4987017065"><ele>1282.3</ele><time>2015-11-24T11:13:36Z</time></trkpt><trkpt lat="30.4822367616" lon="35.4990279302"><ele>1285.7</ele><time>2015-11-24T11:15:38Z</time></trkpt><trkpt lat="30.4816219490" lon="35.4991582688"><ele>1284.4</ele><time>2015-11-24T11:16:01Z</time></trkpt><trkpt lat="30.4811852518" lon="35.4994691536"><ele>1280.6</ele><time>2015-11-24T11:16:16Z</time></trkpt><trkpt lat="30.4809849244" lon="35.4997925274"><ele>1277.4</ele><time>2015-11-24T11:16:23Z</time></trkpt><trkpt lat="30.4808537476" lon="35.5000413861"><ele>1278.8</ele><time>2015-11-24T11:16:27Z</time></trkpt><trkpt lat="30.4799694568" lon="35.5004708748"><ele>1281.3</ele><time>2015-11-24T11:16:49Z</time></trkpt><trkpt lat="30.4796812031" lon="35.5007965956"><ele>1280.4</ele><time>2015-11-24T11:17:03Z</time></trkpt><trkpt lat="30.4789763689" lon="35.5017374642"><ele>1285.5</ele><time>2015-11-24T11:17:45Z</time></trkpt><trkpt lat="30.4787700064" lon="35.5019709002"><ele>1290.2</ele><time>2015-11-24T11:18:00Z</time></trkpt><trkpt lat="30.4778345022" lon="35.5024754908"><ele>1303.7</ele><time>2015-11-24T11:18:57Z</time></trkpt><trkpt lat="30.4769994132" lon="35.5029214919"><ele>1298.4</ele><time>2015-11-24T11:19:28Z</time></trkpt><trkpt lat="30.4758216720" lon="35.5032250844"><ele>1291.0</ele><time>2015-11-24T11:19:44Z</time></trkpt><trkpt lat="30.4755815305" lon="35.5030311272"><ele>1288.6</ele><time>2015-11-24T11:19:49Z</time></trkpt><trkpt lat="30.4755992163" lon="35.5029180553"><ele>1288.0</ele><time>2015-11-24T11:19:51Z</time></trkpt><trkpt lat="30.4758283775" lon="35.5018474348"><ele>1291.2</ele><time>2015-11-24T11:22:48Z</time></trkpt><trkpt lat="30.4757638369" lon="35.5006261077"><ele>1299.7</ele><time>2015-11-24T11:23:32Z</time></trkpt><trkpt lat="30.4747650493" lon="35.4989447817"><ele>1314.3</ele><time>2015-11-24T11:24:55Z</time></trkpt><trkpt lat="30.4731371161" lon="35.4964300431"><ele>1347.2</ele><time>2015-11-24T11:27:45Z</time></trkpt><trkpt lat="30.4729781952" lon="35.4961453099"><ele>1345.9</ele><time>2015-11-24T11:28:10Z</time></trkpt><trkpt lat="30.4721973371" lon="35.4962980282"><ele>1348.7</ele><time>2015-11-24T11:32:44Z</time></trkpt><trkpt lat="30.4717162997" lon="35.4961412027"><ele>1349.8</ele><time>2015-11-24T11:33:01Z</time></trkpt><trkpt lat="30.4704811424" lon="35.4957334232"><ele>1361.1</ele><time>2015-11-24T11:34:12Z</time></trkpt><trkpt lat="30.4692984559" lon="35.4964125250"><ele>1374.2</ele><time>2015-11-24T11:35:44Z</time></trkpt><trkpt lat="30.4686405603" lon="35.4964845255"><ele>1380.0</ele><time>2015-11-24T11:36:33Z</time></trkpt><trkpt lat="30.4681990016" lon="35.4965495691"><ele>1382.2</ele><time>2015-11-24T11:37:01Z</time></trkpt><trkpt lat="30.4640978202" lon="35.4980783444"><ele>1404.8</ele><time>2015-11-24T11:40:52Z</time></trkpt><trkpt lat="30.4637927189" lon="35.4985814262"><ele>1407.4</ele><time>2015-11-24T11:41:24Z</time></trkpt><trkpt lat="30.4635892902" lon="35.4991859291"><ele>1413.5</ele><time>2015-11-24T11:42:22Z</time></trkpt><trkpt lat="30.4636819940" lon="35.4995847400"><ele>1422.4</ele><time>2015-11-24T11:43:14Z</time></trkpt><trkpt lat="30.4642372951" lon="35.4997855704"><ele>1431.5</ele><time>2015-11-24T11:45:24Z</time></trkpt><trkpt lat="30.4641186073" lon="35.5003262870"><ele>1441.5</ele><time>2015-11-24T11:46:40Z</time></trkpt><trkpt lat="30.4643083736" lon="35.5006373394"><ele>1446.1</ele><time>2015-11-24T11:47:26Z</time></trkpt><trkpt lat="30.4644299112" lon="35.5010084901"><ele>1448.9</ele><time>2015-11-24T11:49:08Z</time></trkpt><trkpt lat="30.4636522382" lon="35.5032502301"><ele>1469.8</ele><time>2015-11-24T11:52:32Z</time></trkpt><trkpt lat="30.4630938359" lon="35.5035888590"><ele>1470.2</ele><time>2015-11-24T11:54:02Z</time></trkpt><trkpt lat="30.4621375445" lon="35.5031555146"><ele>1480.2</ele><time>2015-11-24T11:56:00Z</time></trkpt><trkpt lat="30.4617157672" lon="35.5029762257"><ele>1486.5</ele><time>2015-11-24T11:56:22Z</time></trkpt><trkpt lat="30.4613265116" lon="35.5030846037"><ele>1494.1</ele><time>2015-11-24T11:56:45Z</time></trkpt><trkpt lat="30.4610405210" lon="35.5038005020"><ele>1505.7</ele><time>2015-11-24T11:58:06Z</time></trkpt><trkpt lat="30.4609047342" lon="35.5049249344"><ele>1517.5</ele><time>2015-11-24T12:00:19Z</time></trkpt><trkpt lat="30.4608460609" lon="35.5054907966"><ele>1519.1</ele><time>2015-11-24T12:01:28Z</time></trkpt><trkpt lat="30.4606946837" lon="35.5057115760"><ele>1517.8</ele><time>2015-11-24T12:02:02Z</time></trkpt><trkpt lat="30.4598374665" lon="35.5061584990"><ele>1526.7</ele><time>2015-11-24T12:03:04Z</time></trkpt><trkpt lat="30.4594249092" lon="35.5069340765"><ele>1530.8</ele><time>2015-11-24T12:03:44Z</time></trkpt><trkpt lat="30.4586624075" lon="35.5063703097"><ele>1533.3</ele><time>2015-11-24T12:06:34Z</time></trkpt><trkpt lat="30.4576984886" lon="35.5063244607"><ele>1536.9</ele><time>2015-11-24T12:07:33Z</time></trkpt><trkpt lat="30.4573278408" lon="35.5061252229"><ele>1539.2</ele><time>2015-11-24T12:07:48Z</time></trkpt><trkpt lat="30.4568101745" lon="35.5058635399"><ele>1544.2</ele><time>2015-11-24T12:08:35Z</time></trkpt><trkpt lat="30.4553980753" lon="35.5058603548"><ele>1562.3</ele><time>2015-11-24T12:10:21Z</time></trkpt><trkpt lat="30.4552295990" lon="35.5057179462"><ele>1563.7</ele><time>2015-11-24T12:10:36Z</time></trkpt><trkpt lat="30.4548654053" lon="35.5057412479"><ele>1568.1</ele><time>2015-11-24T12:11:05Z</time></trkpt><trkpt lat="30.4535568226" lon="35.5060620233"><ele>1570.9</ele><time>2015-11-24T12:12:32Z</time></trkpt><trkpt lat="30.4518380295" lon="35.5059212074"><ele>1579.7</ele><time>2015-11-24T12:14:01Z</time></trkpt><trkpt lat="30.4511153419" lon="35.5063869059"><ele>1584.9</ele><time>2015-11-24T12:15:02Z</time></trkpt><trkpt lat="30.4495442379" lon="35.5068220943"><ele>1591.8</ele><time>2015-11-24T12:16:34Z</time></trkpt><trkpt lat="30.4492284078" lon="35.5068598129"><ele>1591.6</ele><time>2015-11-24T12:16:51Z</time></trkpt><trkpt lat="30.4478996247" lon="35.5065932684"><ele>1589.1</ele><time>2015-11-24T12:18:02Z</time></trkpt><trkpt lat="30.4464959074" lon="35.5064297374"><ele>1595.5</ele><time>2015-11-24T12:19:25Z</time></trkpt><trkpt lat="30.4456331581" lon="35.5060912762"><ele>1597.3</ele><time>2015-11-24T12:20:14Z</time></trkpt><trkpt lat="30.4445072170" lon="35.5061693955"><ele>1605.3</ele><time>2015-11-24T12:21:40Z</time></trkpt><trkpt lat="30.4439763073" lon="35.5062584113"><ele>1604.9</ele><time>2015-11-24T12:22:09Z</time></trkpt><trkpt lat="30.4431011528" lon="35.5059715826"><ele>1605.3</ele><time>2015-11-24T12:23:26Z</time></trkpt><trkpt lat="30.4424409941" lon="35.5051801633"><ele>1603.4</ele><time>2015-11-24T12:25:32Z</time></trkpt><trkpt lat="30.4416629858" lon="35.5048380140"><ele>1605.2</ele><time>2015-11-24T12:26:07Z</time></trkpt><trkpt lat="30.4416081682" lon="35.5047013890"><ele>1607.6</ele><time>2015-11-24T12:40:24Z</time></trkpt><trkpt lat="30.4402367212" lon="35.5046109483"><ele>1622.1</ele><time>2015-11-24T12:44:17Z</time></trkpt><trkpt lat="30.4395935778" lon="35.5044201761"><ele>1629.9</ele><time>2015-11-24T12:45:07Z</time></trkpt><trkpt lat="30.4370878916" lon="35.5039872508"><ele>1633.1</ele><time>2015-11-24T12:47:21Z</time></trkpt><trkpt lat="30.4368528631" lon="35.5037668068"><ele>1634.2</ele><time>2015-11-24T12:47:40Z</time></trkpt><trkpt lat="30.4365626816" lon="35.5035756156"><ele>1637.9</ele><time>2015-11-24T12:48:00Z</time></trkpt><trkpt lat="30.4357746989" lon="35.5021970440"><ele>1656.4</ele><time>2015-11-24T12:49:29Z</time></trkpt><trkpt lat="30.4353728704" lon="35.5013650563"><ele>1654.8</ele><time>2015-11-24T12:50:33Z</time></trkpt><trkpt lat="30.4351857025" lon="35.5012750346"><ele>1654.0</ele><time>2015-11-24T12:50:47Z</time></trkpt><trkpt lat="30.4349199962" lon="35.5019296613"><ele>1660.2</ele><time>2015-11-24T12:51:26Z</time></trkpt><trkpt lat="30.4338663910" lon="35.5027908180"><ele>1656.6</ele><time>2015-11-24T12:52:20Z</time></trkpt><trkpt lat="30.4333348945" lon="35.5040322617"><ele>1666.2</ele><time>2015-11-24T12:53:24Z</time></trkpt><trkpt lat="30.4325930960" lon="35.5040030926"><ele>1670.7</ele><time>2015-11-24T12:54:05Z</time></trkpt><trkpt lat="30.4320486076" lon="35.5035163555"><ele>1674.5</ele><time>2015-11-24T12:54:34Z</time></trkpt><trkpt lat="30.4319796246" lon="35.5034095701"><ele>1674.4</ele><time>2015-11-24T12:54:38Z</time></trkpt><trkpt lat="30.4312518239" lon="35.5032125954"><ele>1673.5</ele><time>2015-11-24T12:55:51Z</time></trkpt><trkpt lat="30.4296007566" lon="35.5038134940"><ele>1670.1</ele><time>2015-11-24T12:58:11Z</time></trkpt><trkpt lat="30.4282496776" lon="35.5038467702"><ele>1673.0</ele><time>2015-11-24T12:59:04Z</time></trkpt><trkpt lat="30.4275843222" lon="35.5044479202"><ele>1671.4</ele><time>2015-11-24T12:59:35Z</time></trkpt><trkpt lat="30.4268923961" lon="35.5048136227"><ele>1671.0</ele><time>2015-11-24T13:00:01Z</time></trkpt><trkpt lat="30.4267119337" lon="35.5048795044"><ele>1671.3</ele><time>2015-11-24T13:00:09Z</time></trkpt><trkpt lat="30.4252202064" lon="35.5047754850"><ele>1677.2</ele><time>2015-11-24T13:01:30Z</time></trkpt><trkpt lat="30.4248127621" lon="35.5045935977"><ele>1679.0</ele><time>2015-11-24T13:01:56Z</time></trkpt><trkpt lat="30.4231398180" lon="35.5038906075"><ele>1671.7</ele><time>2015-11-24T13:02:57Z</time></trkpt><trkpt lat="30.4227728583" lon="35.5036007613"><ele>1669.2</ele><time>2015-11-24T13:03:11Z</time></trkpt><trkpt lat="30.4225724470" lon="35.5032778904"><ele>1666.5</ele><time>2015-11-24T13:03:23Z</time></trkpt><trkpt lat="30.4218802694" lon="35.5030658282"><ele>1656.9</ele><time>2015-11-24T13:03:54Z</time></trkpt><trkpt lat="30.4200562835" lon="35.5029500742"><ele>1643.3</ele><time>2015-11-24T13:04:40Z</time></trkpt><trkpt lat="30.4197278805" lon="35.5031511560"><ele>1644.2</ele><time>2015-11-24T13:04:48Z</time></trkpt><trkpt lat="30.4195327498" lon="35.5034047924"><ele>1645.0</ele><time>2015-11-24T13:04:57Z</time></trkpt><trkpt lat="30.4193570651" lon="35.5038483627"><ele>1638.5</ele><time>2015-11-24T13:05:10Z</time></trkpt><trkpt lat="30.4181447066" lon="35.5050911475"><ele>1619.1</ele><time>2015-11-24T13:06:01Z</time></trkpt><trkpt lat="30.4163205530" lon="35.5055396631"><ele>1607.5</ele><time>2015-11-24T13:07:09Z</time></trkpt><trkpt lat="30.4157384299" lon="35.5060012545"><ele>1599.9</ele><time>2015-11-24T13:07:23Z</time></trkpt><trkpt lat="30.4153021518" lon="35.5081016757"><ele>1585.4</ele><time>2015-11-24T13:07:50Z</time></trkpt><trkpt lat="30.4152794369" lon="35.5081080459"><ele>1585.4</ele><time>2015-11-24T13:07:51Z</time></trkpt><trkpt lat="30.4122254066" lon="35.5078549962"><ele>1594.9</ele><time>2015-11-24T13:09:46Z</time></trkpt><trkpt lat="30.4106683005" lon="35.5070178956"><ele>1601.9</ele><time>2015-11-24T13:10:49Z</time></trkpt><trkpt lat="30.4078194592" lon="35.5048235133"><ele>1615.6</ele><time>2015-11-24T13:13:12Z</time></trkpt><trkpt lat="30.4067904130" lon="35.5042525381"><ele>1622.0</ele><time>2015-11-24T13:14:02Z</time></trkpt><trkpt lat="30.4033893719" lon="35.5035715923"><ele>1632.8</ele><time>2015-11-24T13:16:11Z</time></trkpt><trkpt lat="30.4024428036" lon="35.5035039503"><ele>1633.6</ele><time>2015-11-24T13:16:44Z</time></trkpt><trkpt lat="30.3968628030" lon="35.5031888746"><ele>1602.8</ele><time>2015-11-24T13:17:53Z</time></trkpt><trkpt lat="30.3961058334" lon="35.5034027807"><ele>1595.0</ele><time>2015-11-24T13:18:01Z</time></trkpt><trkpt lat="30.3953856602" lon="35.5039007496"><ele>1591.7</ele><time>2015-11-24T13:18:12Z</time></trkpt><trkpt lat="30.3953334410" lon="35.5039379653"><ele>1591.5</ele><time>2015-11-24T13:18:13Z</time></trkpt><trkpt lat="30.3937683720" lon="35.5051016249"><ele>1587.7</ele><time>2015-11-24T13:18:46Z</time></trkpt><trkpt lat="30.3931953851" lon="35.5058360472"><ele>1584.4</ele><time>2015-11-24T13:19:08Z</time></trkpt><trkpt lat="30.3921312187" lon="35.5097625498"><ele>1577.7</ele><time>2015-11-24T13:20:44Z</time></trkpt><trkpt lat="30.3917225171" lon="35.5109772552"><ele>1571.1</ele><time>2015-11-24T13:21:18Z</time></trkpt><trkpt lat="30.3903539199" lon="35.5131097790"><ele>1565.3</ele><time>2015-11-24T13:22:19Z</time></trkpt><trkpt lat="30.3895945195" lon="35.5138635635"><ele>1561.3</ele><time>2015-11-24T13:22:46Z</time></trkpt><trkpt lat="30.3874624986" lon="35.5153278820"><ele>1555.3</ele><time>2015-11-24T13:23:44Z</time></trkpt><trkpt lat="30.3869472630" lon="35.5154865514"><ele>1551.5</ele><time>2015-11-24T13:23:55Z</time></trkpt><trkpt lat="30.3857287019" lon="35.5152563844"><ele>1545.4</ele><time>2015-11-24T13:24:13Z</time></trkpt><trkpt lat="30.3846707381" lon="35.5150770117"><ele>1543.5</ele><time>2015-11-24T13:24:26Z</time></trkpt><trkpt lat="30.3823610209" lon="35.5157145392"><ele>1550.4</ele><time>2015-11-24T13:25:38Z</time></trkpt><trkpt lat="30.3820959851" lon="35.5157444626"><ele>1550.1</ele><time>2015-11-24T13:25:44Z</time></trkpt><trkpt lat="30.3815623932" lon="35.5157313868"><ele>1546.9</ele><time>2015-11-24T13:25:55Z</time></trkpt><trkpt lat="30.3798243217" lon="35.5154591426"><ele>1537.5</ele><time>2015-11-24T13:26:18Z</time></trkpt><trkpt lat="30.3775749542" lon="35.5150074419"><ele>1541.9</ele><time>2015-11-24T13:26:48Z</time></trkpt><trkpt lat="30.3769212496" lon="35.5145165138"><ele>1544.9</ele><time>2015-11-24T13:27:05Z</time></trkpt><trkpt lat="30.3754614573" lon="35.5128462519"><ele>1552.4</ele><time>2015-11-24T13:29:13Z</time></trkpt><trkpt lat="30.3755839169" lon="35.5127886683"><ele>1553.6</ele><time>2015-11-24T13:34:28Z</time></trkpt><trkpt lat="30.3753818292" lon="35.5128185079"><ele>1552.3</ele><time>2015-11-24T13:42:33Z</time></trkpt><trkpt lat="30.3743399587" lon="35.5117008649"><ele>1559.1</ele><time>2015-11-24T13:43:50Z</time></trkpt><trkpt lat="30.3737013415" lon="35.5114246812"><ele>1560.2</ele><time>2015-11-24T13:44:23Z</time></trkpt><trkpt lat="30.3732978366" lon="35.5113673490"><ele>1564.0</ele><time>2015-11-24T13:44:41Z</time></trkpt><trkpt lat="30.3717310075" lon="35.5116124358"><ele>1572.6</ele><time>2015-11-24T13:45:54Z</time></trkpt><trkpt lat="30.3707818408" lon="35.5114277825"><ele>1576.8</ele><time>2015-11-24T13:46:34Z</time></trkpt><trkpt lat="30.3689980879" lon="35.5105451681"><ele>1590.2</ele><time>2015-11-24T13:47:54Z</time></trkpt><trkpt lat="30.3684096783" lon="35.5102256499"><ele>1587.7</ele><time>2015-11-24T13:48:14Z</time></trkpt><trkpt lat="30.3666279372" lon="35.5083781108"><ele>1569.4</ele><time>2015-11-24T13:48:46Z</time></trkpt><trkpt lat="30.3659446444" lon="35.5080145039"><ele>1565.2</ele><time>2015-11-24T13:48:53Z</time></trkpt><trkpt lat="30.3653098829" lon="35.5079316907"><ele>1560.7</ele><time>2015-11-24T13:49:01Z</time></trkpt><trkpt lat="30.3612438217" lon="35.5076384917"><ele>1539.1</ele><time>2015-11-24T13:49:45Z</time></trkpt><trkpt lat="30.3599556070" lon="35.5077134259"><ele>1528.4</ele><time>2015-11-24T13:49:59Z</time></trkpt><trkpt lat="30.3589366190" lon="35.5079891905"><ele>1524.0</ele><time>2015-11-24T13:50:13Z</time></trkpt><trkpt lat="30.3574821074" lon="35.5084418971"><ele>1513.3</ele><time>2015-11-24T13:50:32Z</time></trkpt><trkpt lat="30.3549186699" lon="35.5098783877"><ele>1487.2</ele><time>2015-11-24T13:51:02Z</time></trkpt><trkpt lat="30.3540619556" lon="35.5100539047"><ele>1481.4</ele><time>2015-11-24T13:51:10Z</time></trkpt><trkpt lat="30.3504098766" lon="35.5107333418"><ele>1476.7</ele><time>2015-11-24T13:52:00Z</time></trkpt><trkpt lat="30.3494887892" lon="35.5107295699"><ele>1476.0</ele><time>2015-11-24T13:52:15Z</time></trkpt><trkpt lat="30.3482937813" lon="35.5103346985"><ele>1478.0</ele><time>2015-11-24T13:52:35Z</time></trkpt><trkpt lat="30.3463333379" lon="35.5097183771"><ele>1472.4</ele><time>2015-11-24T13:53:08Z</time></trkpt><trkpt lat="30.3456992470" lon="35.5099814013"><ele>1469.0</ele><time>2015-11-24T13:53:19Z</time></trkpt><trkpt lat="30.3452655673" lon="35.5106051825"><ele>1466.3</ele><time>2015-11-24T13:53:33Z</time></trkpt><trkpt lat="30.3449044749" lon="35.5111891497"><ele>1468.5</ele><time>2015-11-24T13:53:50Z</time></trkpt><trkpt lat="30.3442579787" lon="35.5115799140"><ele>1474.0</ele><time>2015-11-24T13:54:19Z</time></trkpt><trkpt lat="30.3429050557" lon="35.5115065724"><ele>1483.7</ele><time>2015-11-24T13:55:30Z</time></trkpt><trkpt lat="30.3399855550" lon="35.5117585324"><ele>1487.0</ele><time>2015-11-24T13:56:57Z</time></trkpt><trkpt lat="30.3384559415" lon="35.5109639280"><ele>1496.6</ele><time>2015-11-24T13:57:59Z</time></trkpt><trkpt lat="30.3372233827" lon="35.5113572069"><ele>1496.9</ele><time>2015-11-24T13:58:43Z</time></trkpt><trkpt lat="30.3365355637" lon="35.5109063443"><ele>1496.9</ele><time>2015-11-24T13:59:03Z</time></trkpt><trkpt lat="30.3361621499" lon="35.5107927695"><ele>1492.3</ele><time>2015-11-24T13:59:10Z</time></trkpt><trkpt lat="30.3349706624" lon="35.5110197514"><ele>1482.7</ele><time>2015-11-24T13:59:24Z</time></trkpt><trkpt lat="30.3339524288" lon="35.5103586707"><ele>1473.3</ele><time>2015-11-24T13:59:35Z</time></trkpt><trkpt lat="30.3335198388" lon="35.5103580840"><ele>1469.5</ele><time>2015-11-24T13:59:39Z</time></trkpt><trkpt lat="30.3326648008" lon="35.5105268117"><ele>1467.4</ele><time>2015-11-24T13:59:47Z</time></trkpt><trkpt lat="30.3321707714" lon="35.5104343593"><ele>1467.8</ele><time>2015-11-24T13:59:52Z</time></trkpt><trkpt lat="30.3304970730" lon="35.5097526591"><ele>1467.1</ele><time>2015-11-24T14:00:18Z</time></trkpt><trkpt lat="30.3291127179" lon="35.5088687036"><ele>1464.6</ele><time>2015-11-24T14:00:45Z</time></trkpt><trkpt lat="30.3282795567" lon="35.5084925238"><ele>1455.4</ele><time>2015-11-24T14:00:54Z</time></trkpt><trkpt lat="30.3280207235" lon="35.5079326127"><ele>1447.1</ele><time>2015-11-24T14:00:59Z</time></trkpt><trkpt lat="30.3281097393" lon="35.5059923697"><ele>1432.1</ele><time>2015-11-24T14:01:11Z</time></trkpt><trkpt lat="30.3278058115" lon="35.5052883737"><ele>1424.2</ele><time>2015-11-24T14:01:17Z</time></trkpt><trkpt lat="30.3261043690" lon="35.5042306613"><ele>1399.9</ele><time>2015-11-24T14:01:32Z</time></trkpt><trkpt lat="30.3251471557" lon="35.5031798221"><ele>1382.4</ele><time>2015-11-24T14:01:43Z</time></trkpt><trkpt lat="30.3240606934" lon="35.5028575379"><ele>1370.1</ele><time>2015-11-24T14:01:52Z</time></trkpt><trkpt lat="30.3236024547" lon="35.5023471639"><ele>1361.3</ele><time>2015-11-24T14:01:57Z</time></trkpt><trkpt lat="30.3234038875" lon="35.5018138234"><ele>1356.2</ele><time>2015-11-24T14:02:01Z</time></trkpt><trkpt lat="30.3234799113" lon="35.5004218407"><ele>1342.1</ele><time>2015-11-24T14:02:11Z</time></trkpt><trkpt lat="30.3233553562" lon="35.4999036714"><ele>1335.8</ele><time>2015-11-24T14:02:16Z</time></trkpt><trkpt lat="30.3230620734" lon="35.4986725375"><ele>1324.4</ele><time>2015-11-24T14:02:31Z</time></trkpt><trkpt lat="30.3235101700" lon="35.4981214274"><ele>1318.0</ele><time>2015-11-24T14:02:41Z</time></trkpt><trkpt lat="30.3244993184" lon="35.4976510350"><ele>1311.8</ele><time>2015-11-24T14:03:45Z</time></trkpt></trkseg></trk></gpx>